createdAt,value
2023-10-10T00:02:19.772Z,15.58
2023-10-10T00:04:49.544Z,15.45
2023-10-10T00:07:20.141Z,15.32
2023-10-10T00:09:49.889Z,15.20
2023-10-10T00:12:20.264Z,15.13
2023-10-10T00:14:51.679Z,15.09
2023-10-10T00:17:22.800Z,15.06
2023-10-10T00:19:54.888Z,15.11
2023-10-10T00:22:34.735Z,15.13
2023-10-10T00:25:09.298Z,15.09
2023-10-10T00:27:45.032Z,15.08
2023-10-10T00:30:13.719Z,15.14
2023-10-10T00:32:46.237Z,15.03
2023-10-10T00:35:18.604Z,15.05
2023-10-10T00:37:48.392Z,15.19
2023-10-10T00:40:28.087Z,15.04
2023-10-10T00:42:56.526Z,15.08
2023-10-10T00:45:25.237Z,15.09
2023-10-10T00:47:55.630Z,15.13
2023-10-10T00:50:26.792Z,15.11
2023-10-10T00:52:58.190Z,15.00
2023-10-10T00:55:34.421Z,14.89
2023-10-10T00:58:02.965Z,14.81
2023-10-10T01:00:33.508Z,14.76
2023-10-10T01:03:08.715Z,14.76
2023-10-10T01:05:42.171Z,14.73
2023-10-10T01:08:10.785Z,14.57
2023-10-10T01:10:44.917Z,14.38
2023-10-10T01:13:14.644Z,14.33
2023-10-10T01:15:55.603Z,14.18
2023-10-10T01:18:26.233Z,14.41
2023-10-10T01:20:57.441Z,14.40
2023-10-10T01:23:29.073Z,14.19
2023-10-10T01:26:07.315Z,14.04
2023-10-10T01:28:36.223Z,14.02
2023-10-10T01:31:11.811Z,14.02
2023-10-10T01:33:48.694Z,13.98
2023-10-10T01:36:22.634Z,13.96
2023-10-10T01:39:23.309Z,13.95
2023-10-10T01:41:52.521Z,13.81
2023-10-10T01:44:23.910Z,13.82
2023-10-10T01:46:53.504Z,13.68
2023-10-10T01:49:22.700Z,13.77
2023-10-10T01:51:56.267Z,13.60
2023-10-10T01:54:35.819Z,13.51
2023-10-10T01:57:08.903Z,13.57
2023-10-10T01:59:39.715Z,13.69
2023-10-10T02:02:12.292Z,13.48
2023-10-10T02:04:43.168Z,13.54
2023-10-10T02:07:23.677Z,13.45
2023-10-10T02:10:12.842Z,13.48
2023-10-10T02:12:45.484Z,13.34
2023-10-10T02:15:19.430Z,13.33
2023-10-10T02:17:52.715Z,13.40
2023-10-10T02:20:35.423Z,13.16
2023-10-10T02:23:25.247Z,13.33
2023-10-10T02:25:55.674Z,13.35
2023-10-10T02:28:44.269Z,13.29
2023-10-10T02:31:16.510Z,13.24
2023-10-10T02:33:56.469Z,13.22
2023-10-10T02:36:32.426Z,13.29
2023-10-10T02:39:28.718Z,13.30
2023-10-10T02:42:03.463Z,13.49
2023-10-10T02:44:47.866Z,13.52
2023-10-10T02:47:31.825Z,13.61
2023-10-10T02:50:10.740Z,13.29
2023-10-10T02:52:46.382Z,13.43
2023-10-10T02:55:23.888Z,13.51
2023-10-10T02:57:54.917Z,13.63
2023-10-10T03:00:30.102Z,13.41
2023-10-10T03:03:00.492Z,13.62
2023-10-10T03:05:40.995Z,13.57
2023-10-10T03:08:16.053Z,13.60
2023-10-10T03:10:55.257Z,13.56
2023-10-10T03:13:32.762Z,13.24
2023-10-10T03:16:37.307Z,13.35
2023-10-10T03:19:27.056Z,13.47
2023-10-10T03:22:21.153Z,13.48
2023-10-10T03:25:06.066Z,13.39
2023-10-10T03:27:50.523Z,13.40
2023-10-10T03:30:26.499Z,13.42
2023-10-10T03:33:12.188Z,13.29
2023-10-10T03:36:01.409Z,13.29
2023-10-10T03:38:49.194Z,13.11
2023-10-10T03:41:47.755Z,13.09
2023-10-10T03:44:35.658Z,12.98
2023-10-10T03:47:21.817Z,12.84
2023-10-10T03:50:08.150Z,12.71
2023-10-10T03:52:54.199Z,12.79
2023-10-10T03:55:40.087Z,12.73
2023-10-10T03:58:26.249Z,12.64
2023-10-10T04:01:17.065Z,12.41
2023-10-10T04:04:03.194Z,12.51
2023-10-10T04:06:49.377Z,12.49
2023-10-10T04:09:34.575Z,12.50
2023-10-10T04:12:20.542Z,12.75
2023-10-10T04:15:06.578Z,12.81
2023-10-10T04:17:53.755Z,12.74
2023-10-10T04:20:40.364Z,12.68
2023-10-10T04:23:26.602Z,12.72
2023-10-10T04:26:12.593Z,12.73
2023-10-10T04:28:58.593Z,12.74
2023-10-10T04:31:46.877Z,12.72
2023-10-10T04:34:39.525Z,12.70
2023-10-10T04:37:25.146Z,12.44
2023-10-10T04:40:13.806Z,12.26
2023-10-10T04:42:59.855Z,12.50
2023-10-10T04:45:45.980Z,12.38
2023-10-10T04:48:32.119Z,12.19
2023-10-10T04:51:19.294Z,12.34
2023-10-10T04:54:05.213Z,12.52
2023-10-10T04:56:51.201Z,12.51
2023-10-10T04:59:37.151Z,12.35
2023-10-10T05:02:23.229Z,12.50
2023-10-10T05:05:09.203Z,12.72
2023-10-10T05:07:58.404Z,12.79
2023-10-10T05:10:44.224Z,12.76
2023-10-10T05:13:41.614Z,12.58
2023-10-10T05:16:27.806Z,12.58
2023-10-10T05:19:13.716Z,12.48
2023-10-10T05:21:59.509Z,12.63
2023-10-10T05:24:29.919Z,12.74
2023-10-10T05:26:58.378Z,12.79
2023-10-10T05:29:26.642Z,12.85
2023-10-10T05:32:00.595Z,12.68
2023-10-10T05:34:31.119Z,12.69
2023-10-10T05:36:59.310Z,12.66
2023-10-10T05:39:33.546Z,12.64
2023-10-10T05:42:02.337Z,12.52
2023-10-10T05:44:30.605Z,12.51
2023-10-10T05:46:58.803Z,12.46
2023-10-10T05:49:31.953Z,12.41
2023-10-10T05:52:09.983Z,12.38
2023-10-10T05:54:39.827Z,12.54
2023-10-10T05:57:11.858Z,12.75
2023-10-10T05:59:40.096Z,12.62
2023-10-10T06:02:12.147Z,12.73
2023-10-10T06:04:45.012Z,12.93
2023-10-10T06:07:18.672Z,13.02
2023-10-10T06:09:52.673Z,13.15
2023-10-10T06:12:20.931Z,13.29
2023-10-10T06:14:49.127Z,13.35
2023-10-10T06:17:17.444Z,13.34
2023-10-10T06:19:47.946Z,13.21
2023-10-10T06:22:16.936Z,13.33
2023-10-10T06:24:47.021Z,13.36
2023-10-10T06:27:16.568Z,13.35
2023-10-10T06:29:47.643Z,13.39
2023-10-10T06:32:17.330Z,13.42
2023-10-10T06:34:50.916Z,13.37
2023-10-10T06:37:19.424Z,13.32
2023-10-10T06:39:56.114Z,13.30
2023-10-10T06:42:29.411Z,13.27
2023-10-10T06:45:08.415Z,13.29
2023-10-10T06:47:40.646Z,13.41
2023-10-10T06:50:12.616Z,13.51
2023-10-10T06:52:45.070Z,13.82
2023-10-10T06:55:13.817Z,13.95
2023-10-10T06:57:46.984Z,14.12
2023-10-10T07:00:28.518Z,14.22
2023-10-10T07:02:57.845Z,14.38
2023-10-10T07:05:29.429Z,14.42
2023-10-10T07:08:00.790Z,14.48
2023-10-10T07:10:36.129Z,14.71
2023-10-10T07:13:12.108Z,14.83
2023-10-10T07:15:41.383Z,14.84
2023-10-10T07:18:15.361Z,15.12
2023-10-10T07:21:04.380Z,15.34
2023-10-10T07:23:41.152Z,15.25
2023-10-10T07:26:20.299Z,15.21
2023-10-10T07:28:54.308Z,15.39
2023-10-10T07:31:25.613Z,15.31
2023-10-10T07:34:04.828Z,15.12
2023-10-10T07:36:33.518Z,15.38
2023-10-10T07:39:31.092Z,15.59
2023-10-10T07:41:59.451Z,15.60
2023-10-10T07:44:31.329Z,15.50
2023-10-10T07:47:17.381Z,15.70
2023-10-10T07:49:52.221Z,15.95
2023-10-10T07:52:22.350Z,16.10
2023-10-10T07:55:03.448Z,16.11
2023-10-10T07:57:52.086Z,16.24
2023-10-10T08:00:28.104Z,16.38
2023-10-10T08:02:56.554Z,16.45
2023-10-10T08:05:26.617Z,16.43
2023-10-10T08:07:54.913Z,16.70
2023-10-10T08:10:32.939Z,17.07
2023-10-10T08:13:02.467Z,17.32
2023-10-10T08:15:32.118Z,17.55
2023-10-10T08:18:01.567Z,17.45
2023-10-10T08:20:36.025Z,17.67
2023-10-10T08:23:07.182Z,18.03
2023-10-10T08:25:39.128Z,18.09
2023-10-10T08:28:08.887Z,18.37
2023-10-10T08:30:38.929Z,18.54
2023-10-10T08:33:07.284Z,18.68
2023-10-10T08:35:40.292Z,18.90
2023-10-10T08:38:08.926Z,19.00
2023-10-10T08:40:42.021Z,19.10
2023-10-10T08:43:11.099Z,19.30
2023-10-10T08:45:50.983Z,19.37
2023-10-10T08:48:27.333Z,19.18
2023-10-10T08:50:56.345Z,19.33
2023-10-10T08:53:26.111Z,19.43
2023-10-10T08:55:58.381Z,19.57
2023-10-10T08:58:26.662Z,19.66
2023-10-10T09:00:57.791Z,19.75
2023-10-10T09:03:27.700Z,19.84
2023-10-10T09:05:56.827Z,20.03
2023-10-10T09:08:29.083Z,19.91
2023-10-10T09:11:00.730Z,19.98
2023-10-10T09:13:33.006Z,20.14
2023-10-10T09:16:08.741Z,20.25
2023-10-10T09:18:37.504Z,20.38
2023-10-10T09:21:19.805Z,20.54
2023-10-10T09:24:08.992Z,20.64
2023-10-10T09:26:38.516Z,20.73
2023-10-10T09:29:17.487Z,20.85
2023-10-10T09:31:49.632Z,20.94
2023-10-10T09:34:24.269Z,21.03
2023-10-10T09:36:58.851Z,21.17
2023-10-10T09:39:37.674Z,21.19
2023-10-10T09:42:28.966Z,21.26
2023-10-10T09:45:15.388Z,21.42
2023-10-10T09:47:57.155Z,21.39
2023-10-10T09:50:46.498Z,21.54
2023-10-10T09:53:22.353Z,21.78
2023-10-10T09:55:55.374Z,21.68
2023-10-10T09:58:29.483Z,21.86
2023-10-10T10:01:15.550Z,22.13
2023-10-10T10:04:01.053Z,22.29
2023-10-10T10:07:07.513Z,22.50
2023-10-10T10:10:19.574Z,22.60
2023-10-10T10:13:27.582Z,22.44
2023-10-10T10:16:16.854Z,22.34
2023-10-10T10:18:48.321Z,22.49
2023-10-10T10:21:32.284Z,22.76
2023-10-10T10:24:15.209Z,22.86
2023-10-10T10:26:45.345Z,23.00
2023-10-10T10:29:17.801Z,22.83
2023-10-10T10:31:53.873Z,22.67
2023-10-10T10:34:33.727Z,23.04
2023-10-10T10:37:14.155Z,23.21
2023-10-10T10:40:08.702Z,23.31
2023-10-10T10:42:38.514Z,23.39
2023-10-10T10:45:34.927Z,23.61
2023-10-10T10:48:09.775Z,23.86
2023-10-10T10:50:46.783Z,24.25
2023-10-10T10:53:33.480Z,24.52
2023-10-10T10:56:21.671Z,25.07
2023-10-10T10:59:05.832Z,25.26
2023-10-10T11:01:37.462Z,25.15
2023-10-10T11:04:06.822Z,25.14
2023-10-10T11:06:35.301Z,25.15
2023-10-10T11:09:24.232Z,25.26
2023-10-10T11:11:58.939Z,25.83
2023-10-10T11:14:30.220Z,26.08
2023-10-10T11:16:59.061Z,26.04
2023-10-10T11:19:42.751Z,26.14
2023-10-10T11:22:18.267Z,26.20
2023-10-10T11:24:49.701Z,26.35
2023-10-10T11:27:23.153Z,26.20
2023-10-10T11:29:53.844Z,26.42
2023-10-10T11:32:30.510Z,26.99
2023-10-10T11:35:18.822Z,27.27
2023-10-10T11:37:49.216Z,27.10
2023-10-10T11:40:33.229Z,27.42
2023-10-10T11:43:05.616Z,27.28
2023-10-10T11:45:42.380Z,27.35
2023-10-10T11:48:17.001Z,27.37
2023-10-10T11:50:48.290Z,26.93
2023-10-10T11:53:21.233Z,26.15
2023-10-10T11:55:53.236Z,26.73
2023-10-10T11:58:21.769Z,27.04
2023-10-10T12:01:00.944Z,26.90
2023-10-10T12:03:43.649Z,27.00
2023-10-10T12:06:18.003Z,26.68
2023-10-10T12:08:49.399Z,27.19
2023-10-10T12:11:21.534Z,27.08
2023-10-10T12:13:51.550Z,26.88
2023-10-10T12:16:25.052Z,26.70
2023-10-10T12:18:55.571Z,26.78
2023-10-10T12:21:25.972Z,27.23
2023-10-10T12:24:02.057Z,27.46
2023-10-10T12:26:32.727Z,27.44
2023-10-10T12:29:01.186Z,27.69
2023-10-10T12:31:34.668Z,27.69
2023-10-10T12:34:03.757Z,27.80
2023-10-10T12:36:33.858Z,27.94
2023-10-10T12:39:05.957Z,28.09
2023-10-10T12:41:47.416Z,28.05
2023-10-10T12:44:16.298Z,28.01
2023-10-10T12:46:47.553Z,28.21
2023-10-10T12:49:18.364Z,28.25
2023-10-10T12:51:47.138Z,28.44
2023-10-10T12:54:18.852Z,28.51
2023-10-10T12:56:56.065Z,28.32
2023-10-10T12:59:31.949Z,28.55
2023-10-10T13:02:04.902Z,28.34
2023-10-10T13:04:34.046Z,28.18
2023-10-10T13:07:05.449Z,28.07
2023-10-10T13:09:43.573Z,28.03
2023-10-10T13:12:19.640Z,27.85
2023-10-10T13:14:52.003Z,27.73
2023-10-10T13:17:33.208Z,27.67
2023-10-10T13:20:01.644Z,27.64
2023-10-10T13:22:30.584Z,27.34
2023-10-10T13:24:59.577Z,27.15
2023-10-10T13:27:29.257Z,26.75
2023-10-10T13:29:57.675Z,26.96
2023-10-10T13:32:26.231Z,27.11
2023-10-10T13:34:54.643Z,26.97
2023-10-10T13:37:23.572Z,27.17
2023-10-10T13:39:55.755Z,27.09
2023-10-10T13:42:24.312Z,26.94
2023-10-10T13:45:02.364Z,26.52
2023-10-10T13:47:31.622Z,26.65
2023-10-10T13:50:13.963Z,26.75
2023-10-10T13:52:42.245Z,26.65
2023-10-10T13:55:11.275Z,26.57
2023-10-10T13:57:39.614Z,26.55
2023-10-10T14:00:21.372Z,26.52
2023-10-10T14:02:49.838Z,26.25
2023-10-10T14:05:20.689Z,26.26
2023-10-10T14:07:48.995Z,26.15
2023-10-10T14:10:21.885Z,26.04
2023-10-10T14:12:51.933Z,25.98
2023-10-10T14:15:24.932Z,25.70
2023-10-10T14:17:56.538Z,25.90
2023-10-10T14:20:25.868Z,25.87
2023-10-10T14:22:56.426Z,25.51
2023-10-10T14:25:24.853Z,25.51
2023-10-10T14:27:53.087Z,25.40
2023-10-10T14:30:24.498Z,25.20
2023-10-10T14:32:56.165Z,25.01
2023-10-10T14:35:25.044Z,25.20
2023-10-10T14:38:01.601Z,25.07
2023-10-10T14:40:32.147Z,24.79
2023-10-10T14:43:07.023Z,24.85
2023-10-10T14:45:37.204Z,24.81
2023-10-10T14:48:08.285Z,24.65
2023-10-10T14:50:41.384Z,24.71
2023-10-10T14:53:10.902Z,24.74
2023-10-10T14:55:45.380Z,24.70
2023-10-10T14:58:17.860Z,24.64
2023-10-10T15:00:48.173Z,24.68
2023-10-10T15:03:17.414Z,24.66
2023-10-10T15:05:51.739Z,24.58
2023-10-10T15:08:21.887Z,24.25
2023-10-10T15:10:52.509Z,24.00
2023-10-10T15:13:22.298Z,24.15
2023-10-10T15:15:51.914Z,24.10
2023-10-10T15:18:24.850Z,23.98
2023-10-10T15:20:56.331Z,23.77
2023-10-10T15:23:26.136Z,23.82
2023-10-10T15:25:54.651Z,23.80
2023-10-10T15:28:25.830Z,23.70
2023-10-10T15:30:55.394Z,23.70
2023-10-10T15:33:26.114Z,23.54
2023-10-10T15:35:54.514Z,23.52
2023-10-10T15:38:24.309Z,23.39
2023-10-10T15:40:53.589Z,23.39
2023-10-10T15:43:32.428Z,23.24
2023-10-10T15:46:07.984Z,23.23
2023-10-10T15:48:43.352Z,23.11
2023-10-10T15:51:15.724Z,23.06
2023-10-10T15:53:44.567Z,22.91
2023-10-10T15:56:14.391Z,22.76
2023-10-10T15:58:45.501Z,22.56
2023-10-10T16:01:17.803Z,22.39
2023-10-10T16:03:48.800Z,22.26
2023-10-10T16:06:19.581Z,22.19
2023-10-10T16:08:50.646Z,22.05
2023-10-10T16:11:19.528Z,21.88
2023-10-10T16:13:49.811Z,21.74
2023-10-10T16:16:20.519Z,21.57
2023-10-10T16:18:49.036Z,21.51
2023-10-10T16:21:17.567Z,21.38
2023-10-10T16:23:47.006Z,21.29
2023-10-10T16:26:17.885Z,21.21
2023-10-10T16:28:50.390Z,21.10
2023-10-10T16:31:21.433Z,20.84
2023-10-10T16:33:50.743Z,20.73
2023-10-10T16:36:19.381Z,20.52
2023-10-10T16:38:50.908Z,20.44
2023-10-10T16:41:20.412Z,20.31
2023-10-10T16:44:00.425Z,20.12
2023-10-10T16:46:32.342Z,19.91
2023-10-10T16:49:01.124Z,19.77
2023-10-10T16:51:32.830Z,19.62
2023-10-10T16:54:01.692Z,19.46
2023-10-10T16:56:30.674Z,19.49
2023-10-10T16:58:58.881Z,19.29
2023-10-10T17:01:28.336Z,19.32
2023-10-10T17:04:02.822Z,19.15
2023-10-10T17:06:36.564Z,18.95
2023-10-10T17:09:05.348Z,18.82
2023-10-10T17:11:34.227Z,18.81
2023-10-10T17:14:04.543Z,18.71
2023-10-10T17:16:35.095Z,18.70
2023-10-10T17:19:22.335Z,18.54
2023-10-10T17:21:50.554Z,18.50
2023-10-10T17:24:20.182Z,18.53
2023-10-10T17:26:48.671Z,18.42
2023-10-10T17:29:17.695Z,18.27
2023-10-10T17:31:46.511Z,18.25
2023-10-10T17:34:18.814Z,18.17
2023-10-10T17:36:48.661Z,18.15
2023-10-10T17:39:17.566Z,17.98
2023-10-10T17:41:49.755Z,18.02
2023-10-10T17:44:19.270Z,18.22
2023-10-10T17:46:48.833Z,18.24
2023-10-10T17:49:20.216Z,18.27
2023-10-10T17:51:49.383Z,18.19
2023-10-10T17:54:17.976Z,18.31
2023-10-10T17:56:46.780Z,18.22
2023-10-10T17:59:17.880Z,18.24
2023-10-10T18:01:46.409Z,18.24
2023-10-10T18:04:16.155Z,18.32
2023-10-10T18:06:46.481Z,18.34
2023-10-10T18:09:17.828Z,18.32
2023-10-10T18:11:49.700Z,18.17
2023-10-10T18:14:19.397Z,18.13
2023-10-10T18:16:47.785Z,18.10
2023-10-10T18:19:17.508Z,18.11
2023-10-10T18:21:47.825Z,18.02
2023-10-10T18:24:16.012Z,18.12
2023-10-10T18:26:44.297Z,18.11
2023-10-10T18:29:13.127Z,18.11
2023-10-10T18:31:41.411Z,18.09
2023-10-10T18:34:14.297Z,18.17
2023-10-10T18:36:42.660Z,18.18
2023-10-10T18:39:14.936Z,18.16
2023-10-10T18:41:44.198Z,18.12
2023-10-10T18:44:16.457Z,18.13
2023-10-10T18:46:45.196Z,18.02
2023-10-10T18:49:14.417Z,18.00
2023-10-10T18:51:44.066Z,17.99
2023-10-10T18:54:14.087Z,17.91
2023-10-10T18:56:42.373Z,18.04
2023-10-10T18:59:12.464Z,18.03
2023-10-10T19:01:45.071Z,17.87
2023-10-10T19:04:14.979Z,17.80
2023-10-10T19:06:43.356Z,17.82
2023-10-10T19:09:13.329Z,17.76
2023-10-10T19:11:41.734Z,17.77
2023-10-10T19:14:11.592Z,17.72
2023-10-10T19:16:39.959Z,17.60
2023-10-10T19:19:08.351Z,17.60
2023-10-10T19:21:36.915Z,17.54
2023-10-10T19:24:05.647Z,17.50
2023-10-10T19:26:36.263Z,17.45
2023-10-10T19:29:05.227Z,17.43
2023-10-10T19:31:40.709Z,17.39
2023-10-10T19:34:11.379Z,17.46
2023-10-10T19:36:40.185Z,17.44
2023-10-10T19:39:10.881Z,17.37
2023-10-10T19:41:41.216Z,17.34
2023-10-10T19:44:10.085Z,17.34
2023-10-10T19:46:40.844Z,17.17
2023-10-10T19:49:09.237Z,17.10
2023-10-10T19:51:42.137Z,17.10
2023-10-10T19:54:14.335Z,17.01
2023-10-10T19:56:46.043Z,17.03
2023-10-10T19:59:16.456Z,16.99
2023-10-10T20:01:44.986Z,16.90
2023-10-10T20:04:15.448Z,16.85
2023-10-10T20:06:47.820Z,16.72
2023-10-10T20:09:21.273Z,16.57
2023-10-10T20:11:51.005Z,16.66
2023-10-10T20:14:19.933Z,16.61
2023-10-10T20:16:50.810Z,16.60
2023-10-10T20:19:19.591Z,16.56
2023-10-10T20:21:48.253Z,16.54
2023-10-10T20:24:16.372Z,16.59
2023-10-10T20:26:44.578Z,16.63
2023-10-10T20:29:15.434Z,16.71
2023-10-10T20:31:44.808Z,16.78
2023-10-10T20:34:14.142Z,16.84
2023-10-10T20:36:42.318Z,16.83
2023-10-10T20:39:19.327Z,16.84
2023-10-10T20:41:49.384Z,16.86
2023-10-10T20:44:19.188Z,16.92
2023-10-10T20:46:49.110Z,16.96
2023-10-10T20:49:17.921Z,16.96
2023-10-10T20:51:46.592Z,16.92
2023-10-10T20:54:17.094Z,16.87
2023-10-10T20:56:45.581Z,16.80
2023-10-10T20:59:13.880Z,16.70
2023-10-10T21:01:43.453Z,16.68
2023-10-10T21:04:11.940Z,16.68
2023-10-10T21:06:40.143Z,16.61
2023-10-10T21:09:10.865Z,16.60
2023-10-10T21:11:39.350Z,16.58
2023-10-10T21:14:11.483Z,16.53
2023-10-10T21:16:41.334Z,16.46
2023-10-10T21:19:12.431Z,16.45
2023-10-10T21:21:41.535Z,16.46
2023-10-10T21:24:10.373Z,16.43
2023-10-10T21:26:39.701Z,16.47
2023-10-10T21:29:08.453Z,16.47
2023-10-10T21:31:37.432Z,16.42
2023-10-10T21:34:05.981Z,16.50
2023-10-10T21:36:35.622Z,16.44
2023-10-10T21:39:06.056Z,16.45
2023-10-10T21:41:34.378Z,16.42
2023-10-10T21:44:02.755Z,16.42
2023-10-10T21:46:30.981Z,16.43
2023-10-10T21:48:59.200Z,16.42
2023-10-10T21:51:27.697Z,16.44
2023-10-10T21:53:58.346Z,16.45
2023-10-10T21:56:26.627Z,16.38
2023-10-10T21:58:55.775Z,16.35
2023-10-10T22:01:25.618Z,16.28
2023-10-10T22:03:53.977Z,16.29
2023-10-10T22:06:22.234Z,16.25
2023-10-10T22:08:50.485Z,16.15
2023-10-10T22:11:20.685Z,16.10
2023-10-10T22:13:50.605Z,16.05
2023-10-10T22:16:20.433Z,16.04
2023-10-10T22:18:48.958Z,16.03
2023-10-10T22:21:20.743Z,15.95
2023-10-10T22:23:49.636Z,15.94
2023-10-10T22:26:21.536Z,15.89
2023-10-10T22:28:50.783Z,15.88
2023-10-10T22:31:19.212Z,15.84
2023-10-10T22:33:47.497Z,15.81
2023-10-10T22:36:16.698Z,15.80
2023-10-10T22:38:47.303Z,15.88
2023-10-10T22:41:16.727Z,15.79
2023-10-10T22:43:46.557Z,15.80
2023-10-10T22:46:15.057Z,15.78
2023-10-10T22:48:44.323Z,15.73
2023-10-10T22:51:13.910Z,15.74
2023-10-10T22:53:43.326Z,15.73
2023-10-10T22:56:12.572Z,15.70
2023-10-10T22:58:43.331Z,15.71
2023-10-10T23:01:16.694Z,15.68
2023-10-10T23:03:46.452Z,15.73
2023-10-10T23:06:15.114Z,15.72
2023-10-10T23:08:43.932Z,15.64
2023-10-10T23:11:14.150Z,15.67
2023-10-10T23:13:42.784Z,15.66
2023-10-10T23:16:18.254Z,15.65
2023-10-10T23:18:47.301Z,15.71
2023-10-10T23:21:16.249Z,15.68
2023-10-10T23:23:44.862Z,15.68
2023-10-10T23:26:13.625Z,15.68
2023-10-10T23:28:41.850Z,15.64
2023-10-10T23:31:10.125Z,15.63
2023-10-10T23:33:41.445Z,15.59
2023-10-10T23:36:09.849Z,15.56
2023-10-10T23:38:41.382Z,15.51
2023-10-10T23:41:15.154Z,15.44
2023-10-10T23:43:47.396Z,15.40
2023-10-10T23:46:22.810Z,15.39
2023-10-10T23:48:55.774Z,15.31
2023-10-10T23:51:24.019Z,15.24
2023-10-10T23:53:52.292Z,15.35
2023-10-10T23:56:20.513Z,15.32
2023-10-10T23:58:52.691Z,15.31
